KCDR/CDR METAR and TAF weather

Enter ICAO airport designator
Station Type Date Time Source
KCDR METAR 2021/05/12 23:53 UTC NOAA

KCDR 122353Z AUTO 17009KT 10SM FEW110 14/05 A3018 RMK AO2 SLP230 60005 T01390050 10172 20100 55006


Station Type Date Time Source
KCDR Decoded METAR 2021/05/12 23:53 UTC NOAA

CHADRON MUNICIPAL AIRPORT, NE, United States (KCDR) 42-50N 103-06W 1010M
May 12, 2021 - 07:53 PM EDT / 2021.05.12 2353 UTC
Wind: from the S (170 degrees) at 10 MPH (9 KT):0
Visibility: 10 mile(s):0
Sky conditions: mostly clear
Temperature: 57.0 F (13.9 C)
Dew Point: 41.0 F (5.0 C)
Relative Humidity: 54%
Pressure (altimeter): 30.18 in. Hg (1022 hPa)
Pressure tendency: 0.02 inches (0.6 hPa) lower than three hours ago
ob: KCDR 122353Z AUTO 17009KT 10SM FEW110 14/05 A3018 RMK AO2 SLP230 60005 T01390050 10172 20100 55006
cycle: 0

Station Type Date Time Source
KCDR TAF 2021/05/12 18:54 UTC NOAA

TAF KCDR 121952Z 1218/1318 21013KT P6SM VCTS BKN080CB
TEMPO 1220/1223 VRB20G40KT -TSRA OVC060CB
FM130100 20006KT P6SM BKN080

Example: see airport list